sensor_id;sensor_type;location;lat;lon;timestamp;P1;durP1;ratioP1;P2;durP2;ratioP2
47335;SDS011;33068;51.990;5.926;2024-01-30T00:01:13;31.17;;;18.88;;
47335;SDS011;33068;51.990;5.926;2024-01-30T00:03:40;34.60;;;21.67;;
47335;SDS011;33068;51.990;5.926;2024-01-30T00:06:07;33.95;;;21.40;;
47335;SDS011;33068;51.990;5.926;2024-01-30T00:08:34;30.90;;;20.90;;
47335;SDS011;33068;51.990;5.926;2024-01-30T00:11:01;33.85;;;20.77;;
47335;SDS011;33068;51.990;5.926;2024-01-30T00:13:28;35.42;;;21.55;;
47335;SDS011;33068;51.990;5.926;2024-01-30T00:15:57;33.33;;;21.60;;
47335;SDS011;33068;51.990;5.926;2024-01-30T00:18:24;33.67;;;22.27;;
47335;SDS011;33068;51.990;5.926;2024-01-30T00:20:51;31.65;;;19.98;;
47335;SDS011;33068;51.990;5.926;2024-01-30T00:23:19;36.70;;;22.63;;
47335;SDS011;33068;51.990;5.926;2024-01-30T00:25:46;32.72;;;20.75;;
47335;SDS011;33068;51.990;5.926;2024-01-30T00:28:13;33.63;;;22.10;;
47335;SDS011;33068;51.990;5.926;2024-01-30T00:30:40;34.78;;;21.38;;
47335;SDS011;33068;51.990;5.926;2024-01-30T00:33:09;37.30;;;23.27;;
47335;SDS011;33068;51.990;5.926;2024-01-30T00:35:36;29.58;;;20.55;;
47335;SDS011;33068;51.990;5.926;2024-01-30T00:38:03;36.33;;;23.13;;
47335;SDS011;33068;51.990;5.926;2024-01-30T00:40:32;32.45;;;21.00;;
47335;SDS011;33068;51.990;5.926;2024-01-30T00:42:59;28.48;;;19.75;;
47335;SDS011;33068;51.990;5.926;2024-01-30T00:45:26;28.08;;;19.40;;
47335;SDS011;33068;51.990;5.926;2024-01-30T00:47:53;30.33;;;19.10;;
47335;SDS011;33068;51.990;5.926;2024-01-30T00:50:21;34.33;;;20.58;;
47335;SDS011;33068;51.990;5.926;2024-01-30T00:52:48;31.20;;;20.02;;
47335;SDS011;33068;51.990;5.926;2024-01-30T00:55:15;30.40;;;18.80;;
47335;SDS011;33068;51.990;5.926;2024-01-30T00:57:42;31.50;;;19.92;;
47335;SDS011;33068;51.990;5.926;2024-01-30T01:00:10;30.60;;;19.50;;
47335;SDS011;33068;51.990;5.926;2024-01-30T01:02:38;29.13;;;18.33;;
47335;SDS011;33068;51.990;5.926;2024-01-30T01:05:05;24.90;;;17.48;;
47335;SDS011;33068;51.990;5.926;2024-01-30T01:07:34;29.98;;;20.00;;
47335;SDS011;33068;51.990;5.926;2024-01-30T01:10:02;25.02;;;17.67;;
47335;SDS011;33068;51.990;5.926;2024-01-30T01:12:29;31.58;;;19.55;;
47335;SDS011;33068;51.990;5.926;2024-01-30T01:14:56;28.20;;;19.20;;
47335;SDS011;33068;51.990;5.926;2024-01-30T01:17:23;28.67;;;18.45;;
47335;SDS011;33068;51.990;5.926;2024-01-30T01:19:50;31.90;;;19.85;;
47335;SDS011;33068;51.990;5.926;2024-01-30T01:22:17;32.80;;;20.35;;
47335;SDS011;33068;51.990;5.926;2024-01-30T01:24:46;31.45;;;19.42;;
47335;SDS011;33068;51.990;5.926;2024-01-30T01:27:13;30.45;;;20.13;;
47335;SDS011;33068;51.990;5.926;2024-01-30T01:29:41;28.85;;;19.10;;
47335;SDS011;33068;51.990;5.926;2024-01-30T01:32:08;30.95;;;20.88;;
47335;SDS011;33068;51.990;5.926;2024-01-30T01:34:35;33.15;;;21.50;;
47335;SDS011;33068;51.990;5.926;2024-01-30T01:37:02;30.00;;;19.98;;
47335;SDS011;33068;51.990;5.926;2024-01-30T01:39:29;31.98;;;18.38;;
47335;SDS011;33068;51.990;5.926;2024-01-30T01:41:58;31.83;;;20.08;;
47335;SDS011;33068;51.990;5.926;2024-01-30T01:44:25;26.95;;;18.48;;
47335;SDS011;33068;51.990;5.926;2024-01-30T01:46:53;28.55;;;18.42;;
47335;SDS011;33068;51.990;5.926;2024-01-30T01:49:20;26.33;;;18.40;;
47335;SDS011;33068;51.990;5.926;2024-01-30T01:51:49;30.88;;;19.10;;
47335;SDS011;33068;51.990;5.926;2024-01-30T01:54:20;25.73;;;17.88;;
47335;SDS011;33068;51.990;5.926;2024-01-30T01:56:47;26.35;;;17.80;;
47335;SDS011;33068;51.990;5.926;2024-01-30T01:59:16;31.42;;;18.48;;
47335;SDS011;33068;51.990;5.926;2024-01-30T02:01:45;27.67;;;17.92;;
47335;SDS011;33068;51.990;5.926;2024-01-30T02:04:14;27.42;;;18.35;;
47335;SDS011;33068;51.990;5.926;2024-01-30T02:06:41;27.52;;;18.00;;
47335;SDS011;33068;51.990;5.926;2024-01-30T02:09:09;35.50;;;20.98;;
47335;SDS011;33068;51.990;5.926;2024-01-30T02:11:37;30.33;;;19.90;;
47335;SDS011;33068;51.990;5.926;2024-01-30T02:14:06;32.58;;;20.38;;
47335;SDS011;33068;51.990;5.926;2024-01-30T02:16:34;32.83;;;20.45;;
47335;SDS011;33068;51.990;5.926;2024-01-30T02:19:01;32.45;;;20.45;;
47335;SDS011;33068;51.990;5.926;2024-01-30T02:21:30;31.23;;;19.35;;
47335;SDS011;33068;51.990;5.926;2024-01-30T02:23:57;32.55;;;20.52;;
47335;SDS011;33068;51.990;5.926;2024-01-30T02:26:26;30.98;;;18.70;;
47335;SDS011;33068;51.990;5.926;2024-01-30T02:28:53;30.05;;;21.80;;
47335;SDS011;33068;51.990;5.926;2024-01-30T02:31:20;35.63;;;20.80;;
47335;SDS011;33068;51.990;5.926;2024-01-30T02:33:47;29.30;;;19.45;;
47335;SDS011;33068;51.990;5.926;2024-01-30T02:36:14;31.10;;;20.70;;
47335;SDS011;33068;51.990;5.926;2024-01-30T02:38:43;33.92;;;19.90;;
47335;SDS011;33068;51.990;5.926;2024-01-30T02:41:11;26.40;;;18.98;;
47335;SDS011;33068;51.990;5.926;2024-01-30T02:43:39;29.92;;;19.50;;
47335;SDS011;33068;51.990;5.926;2024-01-30T02:46:06;37.17;;;22.52;;
47335;SDS011;33068;51.990;5.926;2024-01-30T02:48:33;32.17;;;20.70;;
47335;SDS011;33068;51.990;5.926;2024-01-30T02:51:00;31.75;;;20.95;;
47335;SDS011;33068;51.990;5.926;2024-01-30T02:53:27;36.47;;;20.33;;
47335;SDS011;33068;51.990;5.926;2024-01-30T02:55:55;29.48;;;20.35;;
47335;SDS011;33068;51.990;5.926;2024-01-30T02:58:23;32.40;;;20.17;;
47335;SDS011;33068;51.990;5.926;2024-01-30T03:00:50;34.08;;;21.75;;
47335;SDS011;33068;51.990;5.926;2024-01-30T03:03:17;34.33;;;22.20;;
47335;SDS011;33068;51.990;5.926;2024-01-30T03:05:44;33.47;;;21.73;;
47335;SDS011;33068;51.990;5.926;2024-01-30T03:08:11;32.25;;;19.75;;
47335;SDS011;33068;51.990;5.926;2024-01-30T03:10:38;34.67;;;21.10;;
47335;SDS011;33068;51.990;5.926;2024-01-30T03:13:06;32.38;;;21.38;;
47335;SDS011;33068;51.990;5.926;2024-01-30T03:15:33;34.28;;;21.13;;
47335;SDS011;33068;51.990;5.926;2024-01-30T03:18:01;34.90;;;20.48;;
47335;SDS011;33068;51.990;5.926;2024-01-30T03:20:28;31.40;;;19.55;;
47335;SDS011;33068;51.990;5.926;2024-01-30T03:22:56;32.95;;;18.15;;
47335;SDS011;33068;51.990;5.926;2024-01-30T03:25:25;28.17;;;17.27;;
47335;SDS011;33068;51.990;5.926;2024-01-30T03:27:53;28.40;;;18.10;;
47335;SDS011;33068;51.990;5.926;2024-01-30T03:30:21;25.48;;;16.92;;
47335;SDS011;33068;51.990;5.926;2024-01-30T03:32:48;26.67;;;16.75;;
47335;SDS011;33068;51.990;5.926;2024-01-30T03:35:15;24.95;;;16.05;;
47335;SDS011;33068;51.990;5.926;2024-01-30T03:37:42;27.52;;;16.55;;
47335;SDS011;33068;51.990;5.926;2024-01-30T03:40:10;28.83;;;18.25;;
47335;SDS011;33068;51.990;5.926;2024-01-30T03:42:37;28.92;;;19.02;;
47335;SDS011;33068;51.990;5.926;2024-01-30T03:45:05;32.90;;;18.90;;
47335;SDS011;33068;51.990;5.926;2024-01-30T03:47:34;32.70;;;17.95;;
47335;SDS011;33068;51.990;5.926;2024-01-30T03:50:01;26.40;;;18.17;;
47335;SDS011;33068;51.990;5.926;2024-01-30T03:52:30;29.92;;;19.08;;
47335;SDS011;33068;51.990;5.926;2024-01-30T03:54:57;27.63;;;17.85;;
47335;SDS011;33068;51.990;5.926;2024-01-30T03:57:24;32.70;;;18.35;;
47335;SDS011;33068;51.990;5.926;2024-01-30T03:59:51;28.30;;;18.48;;
47335;SDS011;33068;51.990;5.926;2024-01-30T04:02:18;29.50;;;18.05;;
47335;SDS011;33068;51.990;5.926;2024-01-30T04:04:46;32.75;;;19.35;;
47335;SDS011;33068;51.990;5.926;2024-01-30T04:07:13;28.08;;;18.50;;
47335;SDS011;33068;51.990;5.926;2024-01-30T04:09:41;30.83;;;18.67;;
47335;SDS011;33068;51.990;5.926;2024-01-30T04:12:08;29.10;;;18.65;;
47335;SDS011;33068;51.990;5.926;2024-01-30T04:14:35;28.85;;;19.05;;
47335;SDS011;33068;51.990;5.926;2024-01-30T04:17:02;30.30;;;19.63;;
47335;SDS011;33068;51.990;5.926;2024-01-30T04:19:29;24.92;;;16.50;;
47335;SDS011;33068;51.990;5.926;2024-01-30T04:21:57;32.35;;;20.38;;
47335;SDS011;33068;51.990;5.926;2024-01-30T04:24:24;27.15;;;18.05;;
47335;SDS011;33068;51.990;5.926;2024-01-30T04:26:51;27.92;;;18.67;;
47335;SDS011;33068;51.990;5.926;2024-01-30T04:29:18;30.58;;;18.13;;
47335;SDS011;33068;51.990;5.926;2024-01-30T04:31:47;32.53;;;18.98;;
47335;SDS011;33068;51.990;5.926;2024-01-30T04:34:14;30.00;;;17.23;;
47335;SDS011;33068;51.990;5.926;2024-01-30T04:36:43;21.83;;;15.77;;
47335;SDS011;33068;51.990;5.926;2024-01-30T04:39:12;23.90;;;16.00;;
47335;SDS011;33068;51.990;5.926;2024-01-30T04:41:39;24.05;;;15.85;;
47335;SDS011;33068;51.990;5.926;2024-01-30T04:44:06;23.63;;;15.70;;
47335;SDS011;33068;51.990;5.926;2024-01-30T04:46:33;21.95;;;14.85;;
47335;SDS011;33068;51.990;5.926;2024-01-30T04:49:00;19.80;;;14.48;;
47335;SDS011;33068;51.990;5.926;2024-01-30T04:51:29;23.75;;;14.80;;
47335;SDS011;33068;51.990;5.926;2024-01-30T04:53:56;22.23;;;15.80;;
47335;SDS011;33068;51.990;5.926;2024-01-30T04:56:25;24.15;;;15.23;;
47335;SDS011;33068;51.990;5.926;2024-01-30T04:58:52;27.70;;;16.25;;
47335;SDS011;33068;51.990;5.926;2024-01-30T05:01:19;23.80;;;15.43;;
47335;SDS011;33068;51.990;5.926;2024-01-30T05:03:46;24.27;;;16.45;;
47335;SDS011;33068;51.990;5.926;2024-01-30T05:06:23;27.45;;;15.93;;
47335;SDS011;33068;51.990;5.926;2024-01-30T05:08:50;25.25;;;15.20;;
47335;SDS011;33068;51.990;5.926;2024-01-30T05:11:17;21.80;;;14.48;;
47335;SDS011;33068;51.990;5.926;2024-01-30T05:13:46;31.33;;;16.42;;
47335;SDS011;33068;51.990;5.926;2024-01-30T05:16:13;26.02;;;15.32;;
47335;SDS011;33068;51.990;5.926;2024-01-30T05:18:40;22.23;;;14.73;;
47335;SDS011;33068;51.990;5.926;2024-01-30T05:21:07;21.30;;;14.77;;
47335;SDS011;33068;51.990;5.926;2024-01-30T05:23:34;21.90;;;13.82;;
47335;SDS011;33068;51.990;5.926;2024-01-30T05:26:01;23.25;;;13.80;;
47335;SDS011;33068;51.990;5.926;2024-01-30T05:28:28;20.08;;;14.55;;
47335;SDS011;33068;51.990;5.926;2024-01-30T05:30:57;22.27;;;14.25;;
47335;SDS011;33068;51.990;5.926;2024-01-30T05:33:24;19.33;;;13.52;;
47335;SDS011;33068;51.990;5.926;2024-01-30T05:35:51;18.50;;;13.73;;
47335;SDS011;33068;51.990;5.926;2024-01-30T05:38:19;22.48;;;15.77;;
47335;SDS011;33068;51.990;5.926;2024-01-30T05:40:46;22.15;;;14.85;;
47335;SDS011;33068;51.990;5.926;2024-01-30T05:43:13;21.92;;;14.90;;
47335;SDS011;33068;51.990;5.926;2024-01-30T05:45:40;22.52;;;14.73;;
47335;SDS011;33068;51.990;5.926;2024-01-30T05:48:09;20.05;;;13.82;;
47335;SDS011;33068;51.990;5.926;2024-01-30T05:50:36;22.65;;;15.65;;
47335;SDS011;33068;51.990;5.926;2024-01-30T05:53:03;23.65;;;16.20;;
47335;SDS011;33068;51.990;5.926;2024-01-30T05:55:30;27.02;;;16.52;;
47335;SDS011;33068;51.990;5.926;2024-01-30T05:57:57;23.10;;;14.35;;
47335;SDS011;33068;51.990;5.926;2024-01-30T06:00:24;26.50;;;15.68;;
47335;SDS011;33068;51.990;5.926;2024-01-30T06:02:52;21.23;;;15.35;;
47335;SDS011;33068;51.990;5.926;2024-01-30T06:05:20;23.90;;;14.40;;
47335;SDS011;33068;51.990;5.926;2024-01-30T06:07:47;23.90;;;15.68;;
47335;SDS011;33068;51.990;5.926;2024-01-30T06:10:14;24.20;;;15.05;;
47335;SDS011;33068;51.990;5.926;2024-01-30T06:12:41;21.90;;;15.05;;
47335;SDS011;33068;51.990;5.926;2024-01-30T06:15:09;23.73;;;14.82;;
47335;SDS011;33068;51.990;5.926;2024-01-30T06:17:37;22.15;;;15.57;;
47335;SDS011;33068;51.990;5.926;2024-01-30T06:20:06;23.42;;;15.60;;
47335;SDS011;33068;51.990;5.926;2024-01-30T06:22:35;22.55;;;15.80;;
47335;SDS011;33068;51.990;5.926;2024-01-30T06:25:02;21.67;;;15.25;;
47335;SDS011;33068;51.990;5.926;2024-01-30T06:27:29;27.63;;;15.70;;
47335;SDS011;33068;51.990;5.926;2024-01-30T06:29:56;22.48;;;14.45;;
47335;SDS011;33068;51.990;5.926;2024-01-30T06:32:23;24.33;;;15.70;;
47335;SDS011;33068;51.990;5.926;2024-01-30T06:34:50;22.35;;;15.35;;
47335;SDS011;33068;51.990;5.926;2024-01-30T06:37:17;20.38;;;13.70;;
47335;SDS011;33068;51.990;5.926;2024-01-30T06:39:46;23.60;;;14.30;;
47335;SDS011;33068;51.990;5.926;2024-01-30T06:42:13;22.50;;;14.52;;
47335;SDS011;33068;51.990;5.926;2024-01-30T06:44:40;24.40;;;13.73;;
47335;SDS011;33068;51.990;5.926;2024-01-30T06:47:07;22.17;;;13.88;;
47335;SDS011;33068;51.990;5.926;2024-01-30T06:49:34;21.20;;;13.60;;
47335;SDS011;33068;51.990;5.926;2024-01-30T06:52:07;22.73;;;13.35;;
47335;SDS011;33068;51.990;5.926;2024-01-30T06:55:02;19.92;;;12.85;;
47335;SDS011;33068;51.990;5.926;2024-01-30T06:57:29;22.67;;;12.57;;
47335;SDS011;33068;51.990;5.926;2024-01-30T06:59:56;22.05;;;12.45;;
47335;SDS011;33068;51.990;5.926;2024-01-30T07:02:23;18.33;;;12.43;;
47335;SDS011;33068;51.990;5.926;2024-01-30T07:04:51;20.10;;;12.48;;
47335;SDS011;33068;51.990;5.926;2024-01-30T07:07:25;15.45;;;11.48;;
47335;SDS011;33068;51.990;5.926;2024-01-30T07:10:51;15.60;;;11.90;;
47335;SDS011;33068;51.990;5.926;2024-01-30T07:13:20;16.40;;;11.45;;
47335;SDS011;33068;51.990;5.926;2024-01-30T07:15:47;15.52;;;11.57;;
47335;SDS011;33068;51.990;5.926;2024-01-30T07:18:17;15.95;;;10.85;;
47335;SDS011;33068;51.990;5.926;2024-01-30T07:20:44;20.75;;;11.20;;
47335;SDS011;33068;51.990;5.926;2024-01-30T07:23:12;14.75;;;10.35;;
47335;SDS011;33068;51.990;5.926;2024-01-30T07:25:42;17.77;;;10.82;;
47335;SDS011;33068;51.990;5.926;2024-01-30T07:28:11;19.25;;;10.65;;
47335;SDS011;33068;51.990;5.926;2024-01-30T07:30:39;12.82;;;9.13;;
47335;SDS011;33068;51.990;5.926;2024-01-30T07:33:06;14.40;;;9.80;;
47335;SDS011;33068;51.990;5.926;2024-01-30T07:35:33;16.73;;;10.05;;
47335;SDS011;33068;51.990;5.926;2024-01-30T07:38:01;19.10;;;10.15;;
47335;SDS011;33068;51.990;5.926;2024-01-30T07:40:28;15.52;;;10.77;;
47335;SDS011;33068;51.990;5.926;2024-01-30T07:42:56;18.27;;;10.93;;
47335;SDS011;33068;51.990;5.926;2024-01-30T07:45:24;16.98;;;10.07;;
47335;SDS011;33068;51.990;5.926;2024-01-30T07:47:57;13.80;;;9.02;;
47335;SDS011;33068;51.990;5.926;2024-01-30T07:50:26;16.95;;;9.55;;
47335;SDS011;33068;51.990;5.926;2024-01-30T07:52:53;14.63;;;8.95;;
47335;SDS011;33068;51.990;5.926;2024-01-30T07:55:22;12.63;;;9.23;;
47335;SDS011;33068;51.990;5.926;2024-01-30T07:57:50;13.77;;;8.90;;
47335;SDS011;33068;51.990;5.926;2024-01-30T08:00:18;16.15;;;8.98;;
47335;SDS011;33068;51.990;5.926;2024-01-30T08:02:47;15.48;;;8.82;;
47335;SDS011;33068;51.990;5.926;2024-01-30T08:05:14;14.30;;;9.27;;
47335;SDS011;33068;51.990;5.926;2024-01-30T08:07:41;14.52;;;8.88;;
47335;SDS011;33068;51.990;5.926;2024-01-30T08:10:11;16.55;;;8.80;;
47335;SDS011;33068;51.990;5.926;2024-01-30T08:12:38;12.45;;;8.82;;
47335;SDS011;33068;51.990;5.926;2024-01-30T08:15:06;14.20;;;8.93;;
47335;SDS011;33068;51.990;5.926;2024-01-30T08:17:33;15.88;;;9.05;;
47335;SDS011;33068;51.990;5.926;2024-01-30T08:20:02;15.02;;;8.48;;
47335;SDS011;33068;51.990;5.926;2024-01-30T08:22:30;14.20;;;8.43;;
47335;SDS011;33068;51.990;5.926;2024-01-30T08:24:57;14.02;;;8.55;;
47335;SDS011;33068;51.990;5.926;2024-01-30T08:27:24;15.63;;;9.15;;
47335;SDS011;33068;51.990;5.926;2024-01-30T08:29:51;13.48;;;8.00;;
47335;SDS011;33068;51.990;5.926;2024-01-30T08:32:18;15.13;;;8.82;;
47335;SDS011;33068;51.990;5.926;2024-01-30T08:34:45;18.17;;;8.88;;
47335;SDS011;33068;51.990;5.926;2024-01-30T08:37:14;13.77;;;8.82;;
47335;SDS011;33068;51.990;5.926;2024-01-30T08:39:42;13.98;;;8.77;;
47335;SDS011;33068;51.990;5.926;2024-01-30T08:42:09;12.77;;;8.68;;
47335;SDS011;33068;51.990;5.926;2024-01-30T08:44:36;19.17;;;8.98;;
47335;SDS011;33068;51.990;5.926;2024-01-30T08:47:04;13.27;;;8.00;;
47335;SDS011;33068;51.990;5.926;2024-01-30T08:49:31;15.90;;;10.25;;
47335;SDS011;33068;51.990;5.926;2024-01-30T08:51:59;14.90;;;8.35;;
47335;SDS011;33068;51.990;5.926;2024-01-30T08:54:27;13.07;;;8.63;;
47335;SDS011;33068;51.990;5.926;2024-01-30T08:56:54;12.93;;;8.38;;
47335;SDS011;33068;51.990;5.926;2024-01-30T08:59:23;12.32;;;8.18;;
47335;SDS011;33068;51.990;5.926;2024-01-30T09:01:53;12.93;;;7.70;;
47335;SDS011;33068;51.990;5.926;2024-01-30T09:04:20;13.27;;;7.53;;
47335;SDS011;33068;51.990;5.926;2024-01-30T09:06:48;11.77;;;8.43;;
47335;SDS011;33068;51.990;5.926;2024-01-30T09:09:16;14.60;;;9.18;;
47335;SDS011;33068;51.990;5.926;2024-01-30T09:11:44;11.45;;;7.68;;
47335;SDS011;33068;51.990;5.926;2024-01-30T09:14:12;11.45;;;8.48;;
47335;SDS011;33068;51.990;5.926;2024-01-30T09:16:39;12.13;;;8.05;;
47335;SDS011;33068;51.990;5.926;2024-01-30T09:19:06;13.65;;;8.10;;
47335;SDS011;33068;51.990;5.926;2024-01-30T09:21:36;13.32;;;8.52;;
47335;SDS011;33068;51.990;5.926;2024-01-30T09:24:04;14.30;;;8.48;;
47335;SDS011;33068;51.990;5.926;2024-01-30T09:26:31;17.17;;;8.68;;
47335;SDS011;33068;51.990;5.926;2024-01-30T09:29:00;19.20;;;8.45;;
47335;SDS011;33068;51.990;5.926;2024-01-30T09:31:27;17.58;;;9.13;;
47335;SDS011;33068;51.990;5.926;2024-01-30T09:33:56;13.85;;;9.10;;
47335;SDS011;33068;51.990;5.926;2024-01-30T09:36:24;12.75;;;9.57;;
47335;SDS011;33068;51.990;5.926;2024-01-30T09:38:54;14.23;;;8.68;;
47335;SDS011;33068;51.990;5.926;2024-01-30T09:41:21;16.33;;;7.70;;
47335;SDS011;33068;51.990;5.926;2024-01-30T09:43:51;15.38;;;7.93;;
47335;SDS011;33068;51.990;5.926;2024-01-30T09:46:21;18.50;;;8.48;;
47335;SDS011;33068;51.990;5.926;2024-01-30T09:48:53;12.30;;;8.55;;
47335;SDS011;33068;51.990;5.926;2024-01-30T09:51:21;16.88;;;9.30;;
47335;SDS011;33068;51.990;5.926;2024-01-30T09:53:49;15.38;;;8.43;;
47335;SDS011;33068;51.990;5.926;2024-01-30T09:56:16;10.43;;;8.13;;
47335;SDS011;33068;51.990;5.926;2024-01-30T09:58:44;14.65;;;7.90;;
47335;SDS011;33068;51.990;5.926;2024-01-30T10:01:11;17.63;;;8.63;;
47335;SDS011;33068;51.990;5.926;2024-01-30T10:03:40;12.82;;;8.18;;
47335;SDS011;33068;51.990;5.926;2024-01-30T10:06:07;14.43;;;8.32;;
47335;SDS011;33068;51.990;5.926;2024-01-30T10:08:35;9.63;;;7.57;;
47335;SDS011;33068;51.990;5.926;2024-01-30T10:11:03;14.55;;;8.35;;
47335;SDS011;33068;51.990;5.926;2024-01-30T10:13:30;13.35;;;8.00;;
47335;SDS011;33068;51.990;5.926;2024-01-30T10:15:57;14.48;;;8.57;;
47335;SDS011;33068;51.990;5.926;2024-01-30T10:18:27;15.20;;;7.40;;
47335;SDS011;33068;51.990;5.926;2024-01-30T10:20:59;12.98;;;8.25;;
47335;SDS011;33068;51.990;5.926;2024-01-30T10:23:27;15.98;;;8.27;;
47335;SDS011;33068;51.990;5.926;2024-01-30T10:25:55;13.88;;;8.60;;
47335;SDS011;33068;51.990;5.926;2024-01-30T10:28:22;13.75;;;7.72;;
47335;SDS011;33068;51.990;5.926;2024-01-30T10:30:57;14.57;;;8.25;;
47335;SDS011;33068;51.990;5.926;2024-01-30T10:33:28;12.10;;;7.65;;
47335;SDS011;33068;51.990;5.926;2024-01-30T10:35:55;14.55;;;8.40;;
47335;SDS011;33068;51.990;5.926;2024-01-30T10:38:28;10.15;;;7.93;;
47335;SDS011;33068;51.990;5.926;2024-01-30T10:40:56;15.45;;;8.30;;
47335;SDS011;33068;51.990;5.926;2024-01-30T10:43:29;13.55;;;8.60;;
47335;SDS011;33068;51.990;5.926;2024-01-30T10:46:01;14.70;;;8.02;;
47335;SDS011;33068;51.990;5.926;2024-01-30T10:48:39;13.52;;;8.10;;
47335;SDS011;33068;51.990;5.926;2024-01-30T10:51:11;11.35;;;8.15;;
47335;SDS011;33068;51.990;5.926;2024-01-30T10:53:43;14.20;;;7.95;;
47335;SDS011;33068;51.990;5.926;2024-01-30T10:56:16;12.77;;;8.15;;
47335;SDS011;33068;51.990;5.926;2024-01-30T10:58:43;14.63;;;7.72;;
47335;SDS011;33068;51.990;5.926;2024-01-30T11:01:10;20.13;;;8.52;;
47335;SDS011;33068;51.990;5.926;2024-01-30T11:03:39;12.90;;;8.00;;
47335;SDS011;33068;51.990;5.926;2024-01-30T11:06:10;14.73;;;8.48;;
47335;SDS011;33068;51.990;5.926;2024-01-30T11:08:43;10.55;;;7.47;;
47335;SDS011;33068;51.990;5.926;2024-01-30T11:11:11;18.45;;;9.70;;
47335;SDS011;33068;51.990;5.926;2024-01-30T11:13:38;14.75;;;8.43;;
47335;SDS011;33068;51.990;5.926;2024-01-30T11:16:08;16.38;;;8.82;;
47335;SDS011;33068;51.990;5.926;2024-01-30T11:18:39;14.13;;;8.32;;
47335;SDS011;33068;51.990;5.926;2024-01-30T11:21:06;12.27;;;8.10;;
47335;SDS011;33068;51.990;5.926;2024-01-30T11:23:35;18.55;;;7.85;;
47335;SDS011;33068;51.990;5.926;2024-01-30T11:26:02;17.25;;;7.53;;
47335;SDS011;33068;51.990;5.926;2024-01-30T11:28:32;17.60;;;8.75;;
47335;SDS011;33068;51.990;5.926;2024-01-30T11:31:03;13.75;;;8.75;;
47335;SDS011;33068;51.990;5.926;2024-01-30T11:33:32;14.35;;;7.72;;
47335;SDS011;33068;51.990;5.926;2024-01-30T11:36:00;16.60;;;8.10;;
47335;SDS011;33068;51.990;5.926;2024-01-30T11:38:28;18.33;;;8.48;;
47335;SDS011;33068;51.990;5.926;2024-01-30T11:40:57;11.95;;;6.90;;
47335;SDS011;33068;51.990;5.926;2024-01-30T11:43:24;16.55;;;7.40;;
47335;SDS011;33068;51.990;5.926;2024-01-30T11:45:51;18.15;;;8.52;;
47335;SDS011;33068;51.990;5.926;2024-01-30T11:48:18;11.68;;;6.45;;
47335;SDS011;33068;51.990;5.926;2024-01-30T11:50:46;14.85;;;6.22;;
47335;SDS011;33068;51.990;5.926;2024-01-30T11:53:17;14.88;;;7.43;;
47335;SDS011;33068;51.990;5.926;2024-01-30T11:55:49;12.60;;;7.55;;
47335;SDS011;33068;51.990;5.926;2024-01-30T11:58:18;14.02;;;8.25;;
47335;SDS011;33068;51.990;5.926;2024-01-30T12:00:52;14.82;;;7.35;;
47335;SDS011;33068;51.990;5.926;2024-01-30T12:03:20;14.45;;;7.18;;
47335;SDS011;33068;51.990;5.926;2024-01-30T12:05:54;15.35;;;7.32;;
47335;SDS011;33068;51.990;5.926;2024-01-30T12:08:22;14.50;;;7.57;;
47335;SDS011;33068;51.990;5.926;2024-01-30T12:10:54;12.80;;;8.23;;
47335;SDS011;33068;51.990;5.926;2024-01-30T12:13:24;11.85;;;8.15;;
47335;SDS011;33068;51.990;5.926;2024-01-30T12:15:52;16.55;;;7.15;;
47335;SDS011;33068;51.990;5.926;2024-01-30T12:18:19;16.40;;;7.38;;
47335;SDS011;33068;51.990;5.926;2024-01-30T12:20:56;12.73;;;8.30;;
47335;SDS011;33068;51.990;5.926;2024-01-30T12:23:24;13.65;;;7.97;;
47335;SDS011;33068;51.990;5.926;2024-01-30T12:25:51;14.80;;;8.65;;
47335;SDS011;33068;51.990;5.926;2024-01-30T12:28:19;12.70;;;7.88;;
47335;SDS011;33068;51.990;5.926;2024-01-30T12:30:50;14.27;;;8.73;;
47335;SDS011;33068;51.990;5.926;2024-01-30T12:33:20;14.80;;;8.27;;
47335;SDS011;33068;51.990;5.926;2024-01-30T12:35:48;11.45;;;7.68;;
47335;SDS011;33068;51.990;5.926;2024-01-30T12:38:17;12.70;;;6.05;;
47335;SDS011;33068;51.990;5.926;2024-01-30T12:40:44;11.52;;;5.97;;
47335;SDS011;33068;51.990;5.926;2024-01-30T12:43:13;10.32;;;4.88;;
47335;SDS011;33068;51.990;5.926;2024-01-30T12:45:41;6.85;;;3.20;;
47335;SDS011;33068;51.990;5.926;2024-01-30T12:48:10;7.82;;;2.13;;
47335;SDS011;33068;51.990;5.926;2024-01-30T12:50:37;4.03;;;2.33;;
47335;SDS011;33068;51.990;5.926;2024-01-30T12:53:04;6.70;;;1.92;;
47335;SDS011;33068;51.990;5.926;2024-01-30T12:55:31;2.50;;;1.60;;
47335;SDS011;33068;51.990;5.926;2024-01-30T12:57:59;7.10;;;1.45;;
47335;SDS011;33068;51.990;5.926;2024-01-30T13:00:28;3.15;;;1.10;;
47335;SDS011;33068;51.990;5.926;2024-01-30T13:02:55;5.97;;;1.20;;
47335;SDS011;33068;51.990;5.926;2024-01-30T13:05:24;5.55;;;1.08;;
47335;SDS011;33068;51.990;5.926;2024-01-30T13:07:51;5.25;;;1.08;;
47335;SDS011;33068;51.990;5.926;2024-01-30T13:10:19;4.53;;;1.00;;
47335;SDS011;33068;51.990;5.926;2024-01-30T13:12:46;3.95;;;0.85;;
47335;SDS011;33068;51.990;5.926;2024-01-30T13:15:13;5.65;;;1.20;;
47335;SDS011;33068;51.990;5.926;2024-01-30T13:17:40;3.22;;;0.80;;
47335;SDS011;33068;51.990;5.926;2024-01-30T13:20:09;4.53;;;0.82;;
47335;SDS011;33068;51.990;5.926;2024-01-30T13:22:40;4.72;;;0.93;;
47335;SDS011;33068;51.990;5.926;2024-01-30T13:25:07;4.22;;;0.82;;
47335;SDS011;33068;51.990;5.926;2024-01-30T13:27:37;5.25;;;0.57;;
47335;SDS011;33068;51.990;5.926;2024-01-30T13:30:06;3.50;;;0.75;;
47335;SDS011;33068;51.990;5.926;2024-01-30T13:32:35;1.90;;;0.40;;
47335;SDS011;33068;51.990;5.926;2024-01-30T13:35:02;1.73;;;0.40;;
47335;SDS011;33068;51.990;5.926;2024-01-30T13:37:30;2.60;;;0.68;;
47335;SDS011;33068;51.990;5.926;2024-01-30T13:39:58;1.60;;;0.30;;
47335;SDS011;33068;51.990;5.926;2024-01-30T13:42:26;2.90;;;0.50;;
47335;SDS011;33068;51.990;5.926;2024-01-30T13:44:56;3.03;;;0.40;;
47335;SDS011;33068;51.990;5.926;2024-01-30T13:47:26;4.25;;;0.50;;
47335;SDS011;33068;51.990;5.926;2024-01-30T13:49:53;6.10;;;1.02;;
47335;SDS011;33068;51.990;5.926;2024-01-30T13:52:20;4.78;;;1.23;;
47335;SDS011;33068;51.990;5.926;2024-01-30T13:54:47;5.10;;;1.23;;
47335;SDS011;33068;51.990;5.926;2024-01-30T13:57:16;8.77;;;1.67;;
47335;SDS011;33068;51.990;5.926;2024-01-30T13:59:43;5.45;;;1.92;;
47335;SDS011;33068;51.990;5.926;2024-01-30T14:02:10;10.50;;;2.15;;
47335;SDS011;33068;51.990;5.926;2024-01-30T14:04:37;8.70;;;2.72;;
47335;SDS011;33068;51.990;5.926;2024-01-30T14:07:08;9.63;;;2.83;;
47335;SDS011;33068;51.990;5.926;2024-01-30T14:09:35;10.85;;;3.75;;
47335;SDS011;33068;51.990;5.926;2024-01-30T14:12:02;6.03;;;3.20;;
47335;SDS011;33068;51.990;5.926;2024-01-30T14:14:31;8.77;;;3.58;;
47335;SDS011;33068;51.990;5.926;2024-01-30T14:17:00;11.35;;;4.63;;
47335;SDS011;33068;51.990;5.926;2024-01-30T14:19:27;12.75;;;4.60;;
47335;SDS011;33068;51.990;5.926;2024-01-30T14:21:55;8.63;;;4.32;;
47335;SDS011;33068;51.990;5.926;2024-01-30T14:24:22;11.07;;;4.35;;
47335;SDS011;33068;51.990;5.926;2024-01-30T14:26:49;11.65;;;4.00;;
47335;SDS011;33068;51.990;5.926;2024-01-30T14:29:16;6.80;;;3.75;;
47335;SDS011;33068;51.990;5.926;2024-01-30T14:31:46;11.05;;;4.25;;
47335;SDS011;33068;51.990;5.926;2024-01-30T14:34:14;10.43;;;6.32;;